Time;durP1;ratioP1;P1;durP2;ratioP2;P2;SDS_P1;SDS_P2;PMS_P1;PMS_P2;Temp;Humidity;BMP_temperature;BMP_pressure;BME280_temperature;BME280_humidity;BME280_pressure;Samples;Min_cycle;Max_cycle;Signal;HPM_P1;HPM_P2
2022/02/21 06:52:14;;;;;;;46.00;19.92;;;;;;;;;;5068011;28;20392;-63
2022/02/21 06:54:40;;;;;;;38.67;18.98;;;;;;;;;;5066798;28;20021;-64
2022/02/21 06:57:06;;;;;;;38.15;18.55;;;;;;;;;;5067727;28;20521;-62
2022/02/21 06:59:32;;;;;;;29.05;16.23;;;;;;;;;;5067978;28;20037;-63
2022/02/21 07:01:58;;;;;;;29.02;15.48;;;;;;;;;;5068089;28;20063;-64
2022/02/21 07:04:24;;;;;;;28.65;14.77;;;;;;;;;;5068077;28;20031;-63
2022/02/21 07:06:50;;;;;;;28.35;14.30;;;;;;;;;;5068247;28;20547;-64
2022/02/21 07:09:16;;;;;;;22.13;12.63;;;;;;;;;;5067863;28;20460;-64
2022/02/21 07:11:42;;;;;;;23.33;11.98;;;;;;;;;;5067723;28;20025;-63
2022/02/21 07:14:08;;;;;;;18.65;10.60;;;;;;;;;;5065985;28;20033;-63
2022/02/21 07:16:34;;;;;;;15.10;9.07;;;;;;;;;;5066280;28;20045;-64
2022/02/21 07:19:00;;;;;;;19.38;8.60;;;;;;;;;;5066812;28;20029;-63
2022/02/21 07:21:26;;;;;;;13.45;7.15;;;;;;;;;;5066562;28;20043;-64
2022/02/21 07:23:53;;;;;;;11.55;7.50;;;;;;;;;;5066560;28;20021;-64
2022/02/21 07:26:19;;;;;;;10.82;6.75;;;;;;;;;;5067749;28;20028;-63
2022/02/21 07:28:45;;;;;;;11.98;6.60;;;;;;;;;;5050349;28;20021;-63
2022/02/21 07:31:11;;;;;;;12.68;6.25;;;;;;;;;;5047376;28;20040;-63
2022/02/21 07:33:37;;;;;;;11.98;5.93;;;;;;;;;;5037175;28;20096;-62
2022/02/21 07:36:03;;;;;;;12.57;5.75;;;;;;;;;;5041995;28;20052;-62
2022/02/21 07:38:29;;;;;;;9.77;5.88;;;;;;;;;;5043499;28;20032;-63
2022/02/21 07:40:55;;;;;;;12.07;5.57;;;;;;;;;;5045731;28;20485;-63
2022/02/21 07:43:21;;;;;;;10.25;5.72;;;;;;;;;;5046090;28;20112;-64
2022/02/21 07:45:47;;;;;;;9.55;5.13;;;;;;;;;;5036222;28;20021;-63
2022/02/21 07:48:13;;;;;;;8.43;5.68;;;;;;;;;;5043847;28;20056;-64
2022/02/21 07:50:39;;;;;;;8.65;5.50;;;;;;;;;;5045409;28;20127;-63
2022/02/21 07:53:07;;;;;;;9.90;5.38;;;;;;;;;;5038497;28;20026;-62
2022/02/21 07:55:33;;;;;;;8.20;5.18;;;;;;;;;;5045099;28;20033;-62
2022/02/21 07:57:59;;;;;;;8.88;5.10;;;;;;;;;;5046165;28;20025;-64
2022/02/21 08:00:26;;;;;;;10.90;5.68;;;;;;;;;;5045463;28;20048;-62
2022/02/21 08:02:52;;;;;;;10.57;5.40;;;;;;;;;;5035398;28;20461;-62
2022/02/21 08:05:18;;;;;;;11.25;5.63;;;;;;;;;;5033700;28;20457;-61
2022/02/21 08:07:44;;;;;;;11.38;6.53;;;;;;;;;;5033577;28;20060;-63
2022/02/21 08:10:11;;;;;;;10.07;5.97;;;;;;;;;;5033019;28;20515;-63
2022/02/21 08:12:37;;;;;;;12.32;6.63;;;;;;;;;;5033422;28;20040;-63
2022/02/21 08:15:03;;;;;;;10.93;5.40;;;;;;;;;;5032636;28;20036;-63
2022/02/21 08:17:37;;;;;;;9.32;5.15;;;;;;;;;;5032194;28;20377;-62
2022/02/21 08:20:03;;;;;;;8.98;4.78;;;;;;;;;;5022958;28;20026;-62
2022/02/21 08:22:29;;;;;;;7.70;4.30;;;;;;;;;;5021567;28;20121;-62
2022/02/21 08:24:55;;;;;;;7.35;4.20;;;;;;;;;;5022063;28;20551;-62
2022/02/21 08:27:21;;;;;;;7.70;4.13;;;;;;;;;;5022407;28;20396;-63
2022/02/21 08:29:47;;;;;;;6.68;3.97;;;;;;;;;;5021207;28;20104;-62
2022/02/21 08:32:13;;;;;;;7.65;3.95;;;;;;;;;;5025984;28;20042;-63
2022/02/21 08:34:41;;;;;;;6.97;4.35;;;;;;;;;;5030716;28;20028;-63
2022/02/21 08:37:07;;;;;;;7.35;4.75;;;;;;;;;;5023560;28;20056;-64
2022/02/21 08:39:34;;;;;;;10.23;4.80;;;;;;;;;;5031674;28;20088;-64
2022/02/21 08:42:00;;;;;;;9.35;4.80;;;;;;;;;;5033178;28;20033;-64
2022/02/21 08:44:27;;;;;;;8.40;4.47;;;;;;;;;;5032410;28;20436;-64
2022/02/21 08:46:53;;;;;;;8.77;4.80;;;;;;;;;;5020644;28;20112;-62
2022/02/21 08:49:21;;;;;;;7.85;4.10;;;;;;;;;;5031248;28;20037;-62
2022/02/21 08:51:47;;;;;;;8.70;4.22;;;;;;;;;;5031249;28;20103;-63
2022/02/21 08:54:13;;;;;;;8.77;4.30;;;;;;;;;;5031290;28;20032;-61
2022/02/21 08:56:39;;;;;;;9.80;3.85;;;;;;;;;;5021927;28;20370;-65
2022/02/21 08:59:08;;;;;;;6.90;3.50;;;;;;;;;;5032470;28;20423;-62
2022/02/21 09:01:34;;;;;;;5.03;2.60;;;;;;;;;;5030728;28;20127;-65
2022/02/21 09:04:00;;;;;;;6.78;3.10;;;;;;;;;;5022114;28;20026;-62
2022/02/21 09:06:26;;;;;;;9.20;3.75;;;;;;;;;;5031929;28;20026;-63
2022/02/21 09:08:52;;;;;;;5.55;2.78;;;;;;;;;;5023998;28;20025;-62
2022/02/21 09:11:18;;;;;;;5.85;3.03;;;;;;;;;;5025022;28;20143;-62
2022/02/21 09:13:44;;;;;;;8.48;3.08;;;;;;;;;;5031766;28;20053;-64
2022/02/21 09:16:10;;;;;;;7.20;2.97;;;;;;;;;;5032467;28;20036;-64
2022/02/21 09:18:37;;;;;;;7.13;3.33;;;;;;;;;;5027309;28;20029;-64
2022/02/21 09:21:03;;;;;;;7.05;2.67;;;;;;;;;;5013377;28;20038;-67
2022/02/21 09:23:30;;;;;;;6.85;3.17;;;;;;;;;;5015381;28;20072;-63
2022/02/21 09:25:56;;;;;;;6.78;2.92;;;;;;;;;;5014127;28;20393;-62
2022/02/21 09:28:22;;;;;;;7.10;3.30;;;;;;;;;;5026631;28;20376;-64
2022/02/21 09:30:49;;;;;;;6.20;3.05;;;;;;;;;;5021519;28;20041;-63
2022/02/21 09:33:15;;;;;;;9.93;2.88;;;;;;;;;;5012575;28;20026;-62
2022/02/21 09:35:41;;;;;;;7.22;2.80;;;;;;;;;;5011460;28;20436;-63
2022/02/21 09:38:07;;;;;;;6.57;2.67;;;;;;;;;;5012669;28;20026;-63
2022/02/21 09:40:33;;;;;;;6.63;2.80;;;;;;;;;;5011796;28;20018;-66
2022/02/21 09:42:59;;;;;;;4.45;2.80;;;;;;;;;;5011925;28;20018;-61
2022/02/21 09:45:28;;;;;;;9.45;3.15;;;;;;;;;;5011831;28;20026;-62
2022/02/21 09:47:55;;;;;;;7.82;2.97;;;;;;;;;;5011658;28;20079;-62
2022/02/21 09:50:21;;;;;;;7.88;3.05;;;;;;;;;;5011872;28;20046;-61
2022/02/21 09:52:47;;;;;;;5.45;3.00;;;;;;;;;;5012334;28;20032;-62
2022/02/21 09:55:13;;;;;;;7.50;3.03;;;;;;;;;;5012054;28;20430;-63
2022/02/21 09:57:41;;;;;;;8.32;2.78;;;;;;;;;;5012159;28;20037;-67
2022/02/21 10:00:08;;;;;;;5.93;2.70;;;;;;;;;;5012220;28;20034;-62
2022/02/21 10:02:34;;;;;;;7.97;3.10;;;;;;;;;;5011909;28;20029;-64
2022/02/21 10:05:10;;;;;;;7.65;3.08;;;;;;;;;;5011729;28;20037;-65
2022/02/21 10:07:39;;;;;;;7.65;2.55;;;;;;;;;;5011904;28;20076;-65
2022/02/21 10:10:06;;;;;;;6.63;2.85;;;;;;;;;;5011374;28;20056;-62
2022/02/21 10:12:32;;;;;;;7.28;2.50;;;;;;;;;;5011464;28;20040;-64
2022/02/21 10:15:11;;;;;;;5.20;2.70;;;;;;;;;;5021981;28;20134;-63
2022/02/21 10:17:37;;;;;;;5.75;2.40;;;;;;;;;;5024408;28;20040;-64
2022/02/21 10:20:07;;;;;;;7.75;2.30;;;;;;;;;;5027735;28;20096;-64
2022/02/21 10:22:33;;;;;;;6.40;2.30;;;;;;;;;;5028339;28;20135;-65
2022/02/21 10:25:00;;;;;;;7.30;2.50;;;;;;;;;;5029504;28;20476;-63
2022/02/21 10:27:29;;;;;;;9.32;2.83;;;;;;;;;;5030094;28;20030;-64
2022/02/21 10:30:04;;;;;;;7.47;3.10;;;;;;;;;;5030391;28;20028;-64
2022/02/21 10:32:31;;;;;;;9.73;3.10;;;;;;;;;;5030755;28;20022;-65
2022/02/21 10:35:09;;;;;;;10.52;3.63;;;;;;;;;;5029780;28;20029;-64
2022/02/21 10:37:41;;;;;;;9.80;3.30;;;;;;;;;;5029817;28;20109;-63
2022/02/21 10:40:10;;;;;;;7.25;3.50;;;;;;;;;;5029650;28;20392;-64
2022/02/21 10:42:37;;;;;;;7.65;3.03;;;;;;;;;;5019697;28;20033;-65
2022/02/21 10:45:13;;;;;;;7.97;3.22;;;;;;;;;;5029831;28;20033;-66
2022/02/21 10:47:40;;;;;;;5.32;2.42;;;;;;;;;;5027326;28;20028;-64
2022/02/21 10:50:06;;;;;;;4.68;2.67;;;;;;;;;;5028739;28;20034;-64
2022/02/21 10:52:37;;;;;;;5.68;2.53;;;;;;;;;;5018648;28;20108;-64
2022/02/21 10:55:05;;;;;;;4.57;2.30;;;;;;;;;;5028515;28;20022;-64
2022/02/21 10:57:38;;;;;;;6.63;2.80;;;;;;;;;;5029628;28;20034;-66
2022/02/21 11:00:05;;;;;;;5.68;2.35;;;;;;;;;;5030528;28;20061;-66
2022/02/21 11:02:32;;;;;;;6.60;2.17;;;;;;;;;;5029354;28;20428;-62
2022/02/21 11:05:01;;;;;;;5.43;2.22;;;;;;;;;;5019831;28;20052;-64
2022/02/21 11:07:27;;;;;;;5.15;2.20;;;;;;;;;;5011158;28;20034;-65
2022/02/21 11:09:58;;;;;;;4.25;2.05;;;;;;;;;;5010900;28;20045;-64
2022/02/21 11:12:27;;;;;;;6.03;2.30;;;;;;;;;;5010665;28;20060;-64
2022/02/21 11:14:53;;;;;;;4.85;2.10;;;;;;;;;;5011071;28;20106;-64
2022/02/21 11:17:19;;;;;;;8.00;2.88;;;;;;;;;;5026112;28;20100;-65
2022/02/21 11:19:48;;;;;;;9.25;2.90;;;;;;;;;;5030403;28;20093;-64
2022/02/21 11:22:16;;;;;;;6.85;2.25;;;;;;;;;;5030711;28;20376;-63
2022/02/21 11:24:47;;;;;;;4.47;2.40;;;;;;;;;;5030670;28;20432;-64
2022/02/21 11:27:25;;;;;;;4.32;2.13;;;;;;;;;;5030087;28;20060;-64
2022/02/21 11:29:51;;;;;;;5.43;2.25;;;;;;;;;;5030377;28;20057;-63
2022/02/21 11:32:18;;;;;;;4.78;2.35;;;;;;;;;;5030625;28;20065;-64
2022/02/21 11:34:47;;;;;;;5.55;2.38;;;;;;;;;;5029782;28;20101;-63
2022/02/21 11:37:24;;;;;;;5.40;3.20;;;;;;;;;;5028394;28;20029;-65
2022/02/21 11:39:56;;;;;;;4.88;2.83;;;;;;;;;;5034410;28;20536;-64
2022/02/21 11:42:22;;;;;;;;;;;;;;;;;;5034514;28;20014;-65
2022/02/21 11:44:50;;;;;;;4.63;2.20;;;;;;;;;;5034216;28;19912;-64
2022/02/21 11:47:31;;;;;;;8.73;2.80;;;;;;;;;;5033989;28;20025;-65
2022/02/21 11:49:57;;;;;;;8.23;2.90;;;;;;;;;;5033674;28;20117;-64
2022/02/21 11:52:28;;;;;;;5.10;2.90;;;;;;;;;;5033913;28;20531;-64
2022/02/21 11:54:54;;;;;;;5.15;2.90;;;;;;;;;;5034198;28;20063;-64
2022/02/21 11:57:20;;;;;;;4.90;2.63;;;;;;;;;;5024282;28;20030;-64
2022/02/21 11:59:46;;;;;;;4.72;2.50;;;;;;;;;;5033868;28;20057;-63
2022/02/21 12:02:14;;;;;;;6.80;2.95;;;;;;;;;;5033950;28;20025;-64
2022/02/21 12:04:53;;;;;;;9.88;2.92;;;;;;;;;;5033659;28;20068;-63
2022/02/21 12:07:26;;;;;;;6.57;3.05;;;;;;;;;;5033758;28;20026;-64
2022/02/21 12:10:07;;;;;;;11.10;3.10;;;;;;;;;;5031487;28;20029;-63
2022/02/21 12:12:49;;;;;;;6.03;2.88;;;;;;;;;;5032809;28;20142;-64
2022/02/21 12:15:15;;;;;;;5.63;2.50;;;;;;;;;;5033319;28;20167;-63
2022/02/21 12:17:41;;;;;;;5.75;2.35;;;;;;;;;;5033339;28;20037;-64
2022/02/21 12:20:26;;;;;;;7.85;2.85;;;;;;;;;;5033506;28;20033;-63
2022/02/21 12:23:21;;;;;;;4.25;2.35;;;;;;;;;;5033486;28;20171;-63
2022/02/21 12:25:56;;;;;;;5.32;2.58;;;;;;;;;;5030794;28;20076;-63
2022/02/21 12:28:23;;;;;;;8.70;3.05;;;;;;;;;;5030545;28;20037;-63
2022/02/21 12:30:50;;;;;;;6.70;2.92;;;;;;;;;;5031058;28;20139;-61
2022/02/21 12:33:26;;;;;;;5.50;2.80;;;;;;;;;;5030401;28;20064;-62
2022/02/21 12:35:57;;;;;;;9.90;3.05;;;;;;;;;;5030626;28;20508;-62
2022/02/21 12:38:23;;;;;;;4.95;3.00;;;;;;;;;;5030878;28;20071;-64
2022/02/21 12:40:54;;;;;;;8.45;2.90;;;;;;;;;;5031074;28;20431;-63
2022/02/21 12:43:20;;;;;;;6.95;3.03;;;;;;;;;;5030772;28;20034;-63
2022/02/21 12:45:47;;;;;;;6.55;2.75;;;;;;;;;;5030073;28;20438;-64
2022/02/21 12:48:13;;;;;;;7.40;3.03;;;;;;;;;;5030053;28;20029;-63
2022/02/21 12:50:40;;;;;;;6.03;2.80;;;;;;;;;;5030201;28;20188;-64
2022/02/21 12:53:08;;;;;;;6.60;3.05;;;;;;;;;;5030485;28;20029;-65
2022/02/21 12:55:44;;;;;;;8.50;3.47;;;;;;;;;;5030484;28;20037;-64
2022/02/21 12:58:11;;;;;;;7.63;3.60;;;;;;;;;;5030012;28;20083;-63
2022/02/21 13:00:37;;;;;;;7.25;3.50;;;;;;;;;;5029749;28;20858;-63
2022/02/21 13:03:03;;;;;;;4.55;2.85;;;;;;;;;;5032338;28;20113;-64
2022/02/21 13:05:29;;;;;;;7.20;2.90;;;;;;;;;;5032754;28;20033;-64
2022/02/21 13:07:55;;;;;;;5.10;2.75;;;;;;;;;;5032582;28;20026;-63
2022/02/21 13:10:21;;;;;;;6.10;3.00;;;;;;;;;;5032398;28;20069;-64
2022/02/21 13:12:49;;;;;;;5.63;2.47;;;;;;;;;;5032629;28;20363;-63
2022/02/21 13:15:15;;;;;;;5.70;2.97;;;;;;;;;;5032466;28;20028;-63
2022/02/21 13:17:42;;;;;;;6.88;3.10;;;;;;;;;;5032324;28;20114;-63
2022/02/21 13:20:11;;;;;;;5.93;2.72;;;;;;;;;;5030774;28;20033;-63
2022/02/21 13:22:38;;;;;;;7.38;2.97;;;;;;;;;;5032481;28;20433;-64
2022/02/21 13:25:05;;;;;;;6.68;2.40;;;;;;;;;;5032226;28;20028;-64
2022/02/21 13:27:33;;;;;;;11.82;3.85;;;;;;;;;;5032095;28;20452;-64
2022/02/21 13:29:59;;;;;;;12.52;4.55;;;;;;;;;;5032170;28;20026;-64
2022/02/21 13:32:29;;;;;;;10.70;3.47;;;;;;;;;;5031796;28;20033;-63
2022/02/21 13:34:58;;;;;;;6.90;3.50;;;;;;;;;;5031926;28;20017;-64
2022/02/21 13:37:26;;;;;;;6.30;3.00;;;;;;;;;;5032010;28;20552;-64
2022/02/21 13:39:59;;;;;;;6.30;3.08;;;;;;;;;;5031146;28;20052;-64
2022/02/21 13:42:39;;;;;;;7.22;3.40;;;;;;;;;;5031047;28;20029;-65
2022/02/21 13:45:20;;;;;;;8.95;4.43;;;;;;;;;;5031922;28;20026;-64
2022/02/21 13:48:10;;;;;;;10.70;5.00;;;;;;;;;;5031437;28;20049;-64
2022/02/21 13:50:48;;;;;;;11.75;5.07;;;;;;;;;;5029094;28;20049;-64
2022/02/21 13:53:14;;;;;;;9.60;4.80;;;;;;;;;;5029174;28;20037;-64
2022/02/21 13:55:40;;;;;;;10.43;5.93;;;;;;;;;;5029285;28;20543;-64
2022/02/21 13:58:08;;;;;;;17.00;7.65;;;;;;;;;;5028872;28;20497;-64
2022/02/21 14:00:38;;;;;;;14.73;7.00;;;;;;;;;;5028530;28;20095;-64
2022/02/21 14:03:05;;;;;;;14.50;7.45;;;;;;;;;;5028885;28;20124;-64
2022/02/21 14:05:31;;;;;;;16.52;8.50;;;;;;;;;;5028979;28;20056;-64
2022/02/21 14:07:57;;;;;;;16.10;7.53;;;;;;;;;;5028986;28;20029;-65
2022/02/21 14:10:24;;;;;;;12.65;6.93;;;;;;;;;;5028461;28;20045;-65
2022/02/21 14:13:00;;;;;;;13.95;6.63;;;;;;;;;;5028950;28;20113;-64
2022/02/21 14:15:26;;;;;;;15.07;7.63;;;;;;;;;;5028696;28;20038;-64
2022/02/21 14:17:52;;;;;;;17.42;8.27;;;;;;;;;;5028791;28;20031;-64
2022/02/21 14:20:18;;;;;;;18.13;8.80;;;;;;;;;;5028624;28;20053;-64
2022/02/21 14:22:44;;;;;;;20.45;8.82;;;;;;;;;;5028492;28;20104;-64
2022/02/21 14:25:10;;;;;;;17.95;7.80;;;;;;;;;;5028964;28;20144;-64
2022/02/21 14:27:36;;;;;;;13.75;7.13;;;;;;;;;;5029705;28;20116;-65
2022/02/21 14:30:03;;;;;;;15.20;7.35;;;;;;;;;;5031113;28;20033;-65
2022/02/21 14:32:29;;;;;;;24.17;10.80;;;;;;;;;;5031139;28;20033;-64
2022/02/21 14:34:55;;;;;;;29.23;13.98;;;;;;;;;;5030976;28;20021;-65
2022/02/21 14:37:21;;;;;;;29.10;15.32;;;;;;;;;;5030798;28;20203;-64
2022/02/21 14:39:47;;;;;;;29.67;16.27;;;;;;;;;;5031045;28;20018;-64
2022/02/21 14:42:13;;;;;;;36.58;19.05;;;;;;;;;;5030986;28;20036;-64
2022/02/21 14:44:40;;;;;;;40.58;20.60;;;;;;;;;;5031053;28;20067;-64
2022/02/21 14:47:06;;;;;;;31.55;14.93;;;;;;;;;;5030820;28;20044;-64
2022/02/21 14:49:33;;;;;;;29.08;14.70;;;;;;;;;;5030896;28;20024;-65
2022/02/21 14:52:00;;;;;;;33.58;14.52;;;;;;;;;;5030505;28;20428;-65
2022/02/21 14:54:26;;;;;;;34.30;16.35;;;;;;;;;;5030864;28;20653;-64
2022/02/21 14:56:53;;;;;;;38.40;19.48;;;;;;;;;;5031033;28;20041;-65
2022/02/21 14:59:19;;;;;;;54.63;27.50;;;;;;;;;;5030850;28;20033;-64
2022/02/21 15:01:45;;;;;;;26.33;14.13;;;;;;;;;;5030965;28;20491;-65
2022/02/21 15:04:11;;;;;;;34.53;19.00;;;;;;;;;;5030729;28;20140;-65
2022/02/21 15:06:40;;;;;;;38.45;21.00;;;;;;;;;;5030336;28;20036;-64
2022/02/21 15:09:06;;;;;;;39.05;20.65;;;;;;;;;;5030771;28;20033;-67
2022/02/21 15:11:32;;;;;;;36.60;19.25;;;;;;;;;;5030903;28;20103;-65
2022/02/21 15:13:59;;;;;;;36.83;19.70;;;;;;;;;;5034638;28;20129;-64
2022/02/21 15:16:25;;;;;;;35.78;20.50;;;;;;;;;;5034795;28;20058;-65
2022/02/21 15:18:51;;;;;;;38.28;19.98;;;;;;;;;;5034699;28;20021;-64
2022/02/21 15:21:17;;;;;;;40.80;19.05;;;;;;;;;;5034538;28;20037;-64
2022/02/21 15:23:43;;;;;;;43.65;21.30;;;;;;;;;;5032828;28;20029;-62
2022/02/21 15:26:09;;;;;;;34.92;20.02;;;;;;;;;;5033963;28;20060;-63
2022/02/21 15:28:37;;;;;;;39.25;21.30;;;;;;;;;;5033745;28;20037;-64
2022/02/21 15:31:03;;;;;;;40.50;21.50;;;;;;;;;;5034485;28;20483;-65
2022/02/21 15:33:29;;;;;;;77.50;39.22;;;;;;;;;;5034408;28;20040;-64
2022/02/21 15:35:55;;;;;;;49.95;27.27;;;;;;;;;;5033791;28;20040;-63
2022/02/21 15:38:22;;;;;;;62.40;30.60;;;;;;;;;;5033956;28;20018;-65
2022/02/21 15:40:48;;;;;;;63.58;33.60;;;;;;;;;;5033466;28;20389;-66
2022/02/21 15:43:14;;;;;;;61.10;30.40;;;;;;;;;;5034167;28;20049;-63
2022/02/21 15:45:40;;;;;;;53.22;28.35;;;;;;;;;;5034203;28;20021;-64
2022/02/21 15:48:06;;;;;;;34.63;20.85;;;;;;;;;;5034254;28;20442;-65
2022/02/21 15:50:35;;;;;;;27.60;15.27;;;;;;;;;;5033756;28;20045;-64
2022/02/21 15:53:01;;;;;;;35.92;19.90;;;;;;;;;;5034109;28;20029;-62
2022/02/21 15:55:28;;;;;;;26.55;15.82;;;;;;;;;;5033973;28;20135;-66
2022/02/21 15:57:54;;;;;;;27.02;15.93;;;;;;;;;;5033801;28;20025;-64
2022/02/21 16:00:20;;;;;;;32.70;18.95;;;;;;;;;;5033725;28;20071;-63
2022/02/21 16:02:47;;;;;;;28.90;18.75;;;;;;;;;;5033997;28;20184;-61
2022/02/21 16:05:13;;;;;;;26.90;15.05;;;;;;;;;;5031894;28;20380;-63
2022/02/21 16:07:39;;;;;;;24.92;14.45;;;;;;;;;;5033637;28;20056;-63
2022/02/21 16:10:05;;;;;;;21.88;14.55;;;;;;;;;;5033203;28;20021;-64
2022/02/21 16:12:31;;;;;;;21.65;12.85;;;;;;;;;;5033497;28;20029;-61
2022/02/21 16:14:58;;;;;;;21.63;12.43;;;;;;;;;;5032887;28;20481;-63
2022/02/21 16:17:24;;;;;;;30.50;16.50;;;;;;;;;;5033369;28;20033;-63
2022/02/21 16:19:51;;;;;;;29.88;16.90;;;;;;;;;;5032717;28;20515;-63
2022/02/21 16:22:17;;;;;;;32.30;17.30;;;;;;;;;;5032919;28;20068;-62
2022/02/21 16:24:43;;;;;;;37.75;19.38;;;;;;;;;;5032391;28;20488;-62
2022/02/21 16:27:09;;;;;;;35.15;18.92;;;;;;;;;;5036134;28;20033;-62
2022/02/21 16:29:35;;;;;;;50.30;28.02;;;;;;;;;;5032707;28;20040;-64
2022/02/21 16:32:01;;;;;;;42.58;24.52;;;;;;;;;;5031930;28;20448;-62
2022/02/21 16:34:30;;;;;;;34.05;20.20;;;;;;;;;;5033424;28;20025;-62
2022/02/21 16:36:56;;;;;;;34.75;19.58;;;;;;;;;;5031959;28;20034;-62
2022/02/21 16:39:22;;;;;;;41.25;22.17;;;;;;;;;;5032896;28;20116;-63
2022/02/21 16:41:48;;;;;;;30.80;18.63;;;;;;;;;;5032800;28;20056;-63
2022/02/21 16:44:15;;;;;;;23.08;13.18;;;;;;;;;;5032676;28;20040;-63
2022/02/21 16:46:41;;;;;;;15.30;9.60;;;;;;;;;;5031678;28;20071;-63
2022/02/21 16:49:07;;;;;;;18.70;9.05;;;;;;;;;;5032436;28;20026;-63
2022/02/21 16:51:33;;;;;;;14.35;8.90;;;;;;;;;;5032118;28;20050;-63
2022/02/21 16:53:59;;;;;;;20.80;9.70;;;;;;;;;;5032369;28;20029;-64
2022/02/21 16:56:25;;;;;;;19.92;9.18;;;;;;;;;;5032944;28;20029;-63
2022/02/21 16:58:51;;;;;;;24.85;12.45;;;;;;;;;;5032451;28;20021;-63
2022/02/21 17:01:18;;;;;;;22.85;13.52;;;;;;;;;;5032809;28;20044;-64
2022/02/21 17:03:44;;;;;;;22.45;11.45;;;;;;;;;;5032686;28;20100;-62
2022/02/21 17:06:10;;;;;;;22.27;13.35;;;;;;;;;;5031463;28;20037;-63
2022/02/21 17:08:36;;;;;;;16.88;10.90;;;;;;;;;;5032514;28;20029;-62
2022/02/21 17:11:02;;;;;;;17.88;10.65;;;;;;;;;;5032638;28;20120;-65
2022/02/21 17:13:28;;;;;;;19.65;11.00;;;;;;;;;;5032495;28;20033;-64
2022/02/21 17:15:59;;;;;;;18.80;10.75;;;;;;;;;;5032029;28;20026;-62
2022/02/21 17:18:25;;;;;;;17.77;11.23;;;;;;;;;;5032289;28;20026;-62
2022/02/21 17:20:51;;;;;;;20.50;12.23;;;;;;;;;;5032730;28;20072;-62
2022/02/21 17:23:17;;;;;;;19.00;12.13;;;;;;;;;;5031780;28;20033;-63
2022/02/21 17:25:44;;;;;;;21.83;15.35;;;;;;;;;;5032097;28;20028;-64
2022/02/21 17:28:10;;;;;;;20.55;13.55;;;;;;;;;;5031958;28;20034;-62
2022/02/21 17:30:36;;;;;;;20.92;13.38;;;;;;;;;;5031996;28;20571;-63
2022/02/21 17:33:02;;;;;;;15.73;9.55;;;;;;;;;;5031995;28;20500;-63
2022/02/21 17:35:28;;;;;;;16.80;9.98;;;;;;;;;;5031440;28;20052;-62
2022/02/21 17:37:55;;;;;;;32.13;19.75;;;;;;;;;;5031905;28;20040;-62
2022/02/21 17:40:21;;;;;;;26.58;16.30;;;;;;;;;;5031890;28;20025;-65
2022/02/21 17:42:47;;;;;;;24.27;14.95;;;;;;;;;;5031895;28;20450;-62
2022/02/21 17:45:13;;;;;;;10.55;6.65;;;;;;;;;;5031956;28;20049;-63
2022/02/21 17:47:39;;;;;;;11.13;7.50;;;;;;;;;;5031781;28;20108;-65
2022/02/21 17:50:06;;;;;;;13.48;8.60;;;;;;;;;;5031649;28;20037;-62
2022/02/21 17:52:32;;;;;;;8.77;4.97;;;;;;;;;;5031722;28;20037;-63
2022/02/21 17:54:58;;;;;;;11.85;7.60;;;;;;;;;;5031739;28;20033;-66
2022/02/21 17:57:24;;;;;;;14.23;8.70;;;;;;;;;;5031468;28;20033;-62
2022/02/21 17:59:51;;;;;;;16.83;10.65;;;;;;;;;;5031503;28;20024;-61
2022/02/21 18:02:17;;;;;;;16.00;9.15;;;;;;;;;;5031366;28;20029;-64
2022/02/21 18:04:43;;;;;;;15.35;8.80;;;;;;;;;;5031455;28;20546;-61
2022/02/21 18:07:09;;;;;;;13.50;7.90;;;;;;;;;;5031311;28;20152;-62
2022/02/21 18:09:36;;;;;;;14.15;9.02;;;;;;;;;;5031462;28;20040;-63
2022/02/21 18:12:02;;;;;;;15.10;9.68;;;;;;;;;;5030754;28;20029;-64
2022/02/21 18:14:28;;;;;;;14.48;8.88;;;;;;;;;;5030335;28;20351;-62
2022/02/21 18:16:54;;;;;;;17.17;9.95;;;;;;;;;;5030180;28;20413;-61
2022/02/21 18:19:21;;;;;;;15.75;9.55;;;;;;;;;;5030564;28;20617;-62
2022/02/21 18:21:47;;;;;;;18.27;11.68;;;;;;;;;;5030648;28;20034;-61
2022/02/21 18:24:14;;;;;;;13.75;7.20;;;;;;;;;;5030812;28;20385;-63
2022/02/21 18:26:40;;;;;;;16.95;8.05;;;;;;;;;;5030987;28;20079;-63
2022/02/21 18:29:06;;;;;;;13.60;8.77;;;;;;;;;;5031186;28;20445;-62
2022/02/21 18:31:32;;;;;;;19.83;11.68;;;;;;;;;;5030905;28;20037;-64
2022/02/21 18:33:58;;;;;;;12.95;6.15;;;;;;;;;;5030799;28;20437;-61
2022/02/21 18:36:25;;;;;;;18.58;9.60;;;;;;;;;;5030657;28;20083;-63
2022/02/21 18:38:51;;;;;;;16.40;8.70;;;;;;;;;;5030603;28;20798;-63
2022/02/21 18:41:18;;;;;;;11.98;7.85;;;;;;;;;;5030686;28;20473;-62
2022/02/21 18:43:44;;;;;;;23.23;13.30;;;;;;;;;;5028745;28;20025;-63
2022/02/21 18:46:10;;;;;;;27.20;15.75;;;;;;;;;;5030508;28;20067;-63
2022/02/21 18:48:40;;;;;;;23.30;12.93;;;;;;;;;;5029926;28;20452;-63
2022/02/21 18:51:06;;;;;;;18.95;8.00;;;;;;;;;;5030252;28;20053;-63
2022/02/21 18:53:32;;;;;;;18.85;8.77;;;;;;;;;;5030709;28;20071;-63
2022/02/21 18:55:58;;;;;;;13.73;6.75;;;;;;;;;;5031220;28;20064;-63
2022/02/21 18:58:27;;;;;;;14.95;7.80;;;;;;;;;;5030915;28;20030;-63
2022/02/21 19:00:54;;;;;;;14.57;7.47;;;;;;;;;;5030609;28;20051;-63
2022/02/21 19:03:20;;;;;;;13.30;7.10;;;;;;;;;;5030995;28;20025;-63
2022/02/21 19:05:47;;;;;;;9.60;4.50;;;;;;;;;;5030704;28;20029;-63
2022/02/21 19:08:15;;;;;;;11.38;5.78;;;;;;;;;;5029155;28;20392;-63
2022/02/21 19:10:41;;;;;;;14.38;6.18;;;;;;;;;;5030478;28;20026;-63
2022/02/21 19:13:07;;;;;;;11.80;6.55;;;;;;;;;;5030722;28;20384;-62
2022/02/21 19:15:34;;;;;;;9.93;3.97;;;;;;;;;;5030652;28;20493;-63
2022/02/21 19:18:00;;;;;;;11.38;5.47;;;;;;;;;;5030725;28;20021;-62
2022/02/21 19:20:27;;;;;;;12.13;4.60;;;;;;;;;;5030741;28;20101;-63
2022/02/21 19:22:53;;;;;;;10.38;5.32;;;;;;;;;;5030427;28;20040;-64
2022/02/21 19:25:19;;;;;;;14.15;7.35;;;;;;;;;;5030611;28;20021;-63
2022/02/21 19:27:46;;;;;;;7.13;3.03;;;;;;;;;;5030551;28;20536;-63
2022/02/21 19:30:13;;;;;;;10.23;4.40;;;;;;;;;;5030351;28;20013;-64
2022/02/21 19:32:39;;;;;;;6.25;2.47;;;;;;;;;;5030418;28;20037;-63
2022/02/21 19:35:07;;;;;;;6.70;2.85;;;;;;;;;;5030180;28;20488;-63
2022/02/21 19:37:33;;;;;;;9.93;4.20;;;;;;;;;;5029993;28;20022;-63
2022/02/21 19:39:59;;;;;;;9.48;4.10;;;;;;;;;;5030489;28;20057;-64
2022/02/21 19:42:26;;;;;;;10.07;4.93;;;;;;;;;;5030302;28;20385;-62
2022/02/21 19:44:52;;;;;;;10.52;4.28;;;;;;;;;;5030202;28;20026;-65
2022/02/21 19:47:18;;;;;;;4.25;2.25;;;;;;;;;;5030303;28;20022;-63
2022/02/21 19:49:44;;;;;;;8.85;3.20;;;;;;;;;;5029993;28;20080;-63
2022/02/21 19:52:10;;;;;;;7.68;3.15;;;;;;;;;;5029432;28;20046;-63
2022/02/21 19:54:38;;;;;;;13.02;5.80;;;;;;;;;;5030387;28;20477;-63
2022/02/21 19:57:06;;;;;;;5.88;2.33;;;;;;;;;;5030401;28;20025;-62
2022/02/21 19:59:32;;;;;;;7.85;3.67;;;;;;;;;;5033160;28;20022;-63
2022/02/21 20:01:58;;;;;;;5.30;2.25;;;;;;;;;;5033826;28;20113;-62
2022/02/21 20:04:24;;;;;;;7.82;3.95;;;;;;;;;;5033866;28;20084;-63
2022/02/21 20:06:50;;;;;;;7.03;2.97;;;;;;;;;;5033801;28;20025;-61
2022/02/21 20:09:17;;;;;;;7.80;3.47;;;;;;;;;;5033707;28;20018;-62
2022/02/21 20:11:44;;;;;;;14.18;5.65;;;;;;;;;;5033372;28;20033;-61
2022/02/21 20:14:10;;;;;;;6.50;2.92;;;;;;;;;;5033780;28;20128;-62
2022/02/21 20:16:36;;;;;;;9.05;3.75;;;;;;;;;;5033581;28;20034;-62
2022/02/21 20:19:02;;;;;;;6.75;2.92;;;;;;;;;;5033451;28;20034;-62
2022/02/21 20:21:30;;;;;;;10.68;4.35;;;;;;;;;;5033443;28;20489;-62
2022/02/21 20:23:56;;;;;;;14.73;5.82;;;;;;;;;;5033027;28;20057;-62
2022/02/21 20:26:22;;;;;;;6.82;2.70;;;;;;;;;;5033506;28;20477;-62
2022/02/21 20:28:48;;;;;;;9.32;3.95;;;;;;;;;;5033247;28;20029;-63
2022/02/21 20:31:16;;;;;;;5.95;2.38;;;;;;;;;;5033291;28;20037;-61
2022/02/21 20:33:42;;;;;;;4.63;2.50;;;;;;;;;;5032529;28;20548;-62
2022/02/21 20:36:08;;;;;;;8.38;3.40;;;;;;;;;;5033389;28;20045;-63
2022/02/21 20:38:34;;;;;;;6.55;2.83;;;;;;;;;;5032745;28;20056;-63
2022/02/21 20:41:00;;;;;;;5.10;2.33;;;;;;;;;;5033295;28;20034;-63
2022/02/21 20:43:27;;;;;;;5.15;2.33;;;;;;;;;;5033085;28;20075;-62
2022/02/21 20:45:53;;;;;;;6.20;2.97;;;;;;;;;;5033049;28;20392;-61
2022/02/21 20:48:19;;;;;;;7.78;3.95;;;;;;;;;;5032872;28;20116;-62
2022/02/21 20:50:45;;;;;;;4.78;1.83;;;;;;;;;;5032609;28;20579;-60
2022/02/21 20:53:11;;;;;;;5.20;2.20;;;;;;;;;;5033023;28;20044;-62
2022/02/21 20:55:37;;;;;;;4.25;1.92;;;;;;;;;;5032916;28;20499;-61
2022/02/21 20:58:03;;;;;;;12.80;5.75;;;;;;;;;;5032492;28;20133;-62
2022/02/21 21:00:29;;;;;;;8.30;3.80;;;;;;;;;;5032538;28;20030;-61
2022/02/21 21:02:55;;;;;;;9.82;3.75;;;;;;;;;;5032582;28;20452;-62
2022/02/21 21:05:21;;;;;;;10.68;4.30;;;;;;;;;;5031175;28;20738;-62
2022/02/21 21:07:47;;;;;;;5.15;2.38;;;;;;;;;;5032689;28;20079;-62
2022/02/21 21:10:15;;;;;;;4.70;1.60;;;;;;;;;;5032502;28;20112;-61
2022/02/21 21:12:41;;;;;;;3.40;1.40;;;;;;;;;;5032545;28;20112;-62
2022/02/21 21:15:07;;;;;;;5.65;2.72;;;;;;;;;;5032520;28;20572;-62
2022/02/21 21:17:33;;;;;;;8.75;3.20;;;;;;;;;;5032237;28;20033;-60
2022/02/21 21:19:59;;;;;;;5.95;1.80;;;;;;;;;;5030584;28;20108;-62
2022/02/21 21:22:25;;;;;;;4.25;1.77;;;;;;;;;;5032004;28;20030;-63
2022/02/21 21:24:53;;;;;;;6.68;2.00;;;;;;;;;;5032688;28;20497;-65